createdAt,value
2023-01-25T00:00:48.272Z,2.93
2023-01-25T00:01:48.293Z,2.89
2023-01-25T00:02:48.137Z,2.91
2023-01-25T00:03:48.017Z,2.89
2023-01-25T00:04:47.917Z,2.86
2023-01-25T00:05:47.835Z,2.85
2023-01-25T00:06:47.749Z,2.77
2023-01-25T00:07:47.656Z,2.80
2023-01-25T00:08:47.579Z,2.88
2023-01-25T00:09:47.484Z,2.88
2023-01-25T00:10:47.394Z,2.92
2023-01-25T00:11:47.308Z,2.86
2023-01-25T00:12:47.217Z,2.95
2023-01-25T00:13:47.135Z,2.92
2023-01-25T00:14:47.042Z,2.77
2023-01-25T00:15:46.959Z,2.81
2023-01-25T00:16:46.919Z,2.85
2023-01-25T00:17:47.033Z,2.81
2023-01-25T00:18:46.717Z,2.78
2023-01-25T00:19:46.625Z,2.84
2023-01-25T00:20:46.523Z,2.78
2023-01-25T00:21:46.444Z,2.85
2023-01-25T00:22:46.346Z,2.85
2023-01-25T00:23:46.364Z,2.96
2023-01-25T00:24:46.176Z,2.98
2023-01-25T00:25:46.088Z,2.99
2023-01-25T00:26:46.001Z,2.92
2023-01-25T00:27:45.910Z,2.92
2023-01-25T00:28:45.824Z,2.93
2023-01-25T00:29:45.750Z,2.86
2023-01-25T00:30:45.646Z,2.89
2023-01-25T00:31:45.719Z,3.01
2023-01-25T00:32:45.668Z,2.88
2023-01-25T00:33:45.388Z,2.85
2023-01-25T00:34:45.319Z,2.81
2023-01-25T00:35:45.219Z,2.91
2023-01-25T00:36:45.140Z,2.92
2023-01-25T00:37:45.486Z,2.84
2023-01-25T00:38:44.949Z,2.89
2023-01-25T00:39:44.864Z,2.85
2023-01-25T00:40:44.774Z,2.86
2023-01-25T00:41:44.689Z,2.95
2023-01-25T00:42:44.599Z,2.88
2023-01-25T00:43:44.518Z,2.80
2023-01-25T00:44:44.427Z,2.73
2023-01-25T00:45:44.378Z,2.73
2023-01-25T00:46:44.262Z,2.70
2023-01-25T00:47:44.168Z,2.66
2023-01-25T00:48:44.076Z,2.73
2023-01-25T00:49:43.986Z,2.84
2023-01-25T00:50:43.927Z,2.78
2023-01-25T00:51:43.819Z,2.80
2023-01-25T00:52:43.726Z,2.80
2023-01-25T00:53:43.639Z,2.84
2023-01-25T00:54:43.557Z,2.84
2023-01-25T00:55:43.465Z,2.91
2023-01-25T00:56:43.381Z,2.91
2023-01-25T00:57:43.293Z,2.85
2023-01-25T00:58:43.214Z,2.89
2023-01-25T00:59:43.114Z,2.84
2023-01-25T01:00:43.036Z,2.86
2023-01-25T01:01:42.978Z,2.91
2023-01-25T01:02:42.852Z,2.86
2023-01-25T01:03:42.766Z,2.89
2023-01-25T01:04:42.795Z,2.88
2023-01-25T01:05:42.591Z,2.86
2023-01-25T01:06:42.528Z,2.78
2023-01-25T01:07:42.421Z,2.77
2023-01-25T01:08:42.354Z,2.73
2023-01-25T01:09:42.247Z,2.75
2023-01-25T01:10:42.156Z,2.85
2023-01-25T01:11:42.072Z,2.92
2023-01-25T01:12:45.086Z,2.89
2023-01-25T01:13:41.896Z,2.89
2023-01-25T01:14:41.813Z,2.91
2023-01-25T01:15:41.720Z,2.91
2023-01-25T01:16:41.739Z,2.78
2023-01-25T01:17:41.551Z,2.81
2023-01-25T01:18:41.456Z,2.67
2023-01-25T01:19:41.377Z,2.67
2023-01-25T01:20:41.283Z,2.50
2023-01-25T01:21:41.306Z,2.55
2023-01-25T01:22:41.132Z,2.48
2023-01-25T01:23:41.099Z,2.46
2023-01-25T01:24:40.930Z,2.50
2023-01-25T01:25:40.854Z,2.48
2023-01-25T01:26:40.793Z,2.55
2023-01-25T01:27:40.671Z,2.56
2023-01-25T01:28:40.636Z,2.60
2023-01-25T01:29:40.492Z,2.60
2023-01-25T01:30:40.401Z,2.50
2023-01-25T01:31:40.402Z,2.48
2023-01-25T01:32:40.333Z,2.48
2023-01-25T01:33:40.140Z,2.50
2023-01-25T01:34:40.056Z,2.52
2023-01-25T01:35:39.964Z,2.56
2023-01-25T01:36:39.875Z,2.52
2023-01-25T01:37:39.789Z,2.42
2023-01-25T01:38:39.719Z,2.48
2023-01-25T01:39:39.615Z,2.35
2023-01-25T01:40:39.526Z,2.50
2023-01-25T01:41:39.444Z,2.52
2023-01-25T01:42:39.349Z,2.39
2023-01-25T01:43:39.275Z,2.37
2023-01-25T01:44:39.223Z,2.52
2023-01-25T01:45:39.149Z,2.46
2023-01-25T01:46:39.003Z,2.37
2023-01-25T01:47:38.910Z,2.48
2023-01-25T01:48:38.830Z,2.42
2023-01-25T01:49:38.735Z,2.42
2023-01-25T01:50:38.654Z,2.42
2023-01-25T01:51:38.559Z,2.38
2023-01-25T01:52:38.483Z,2.48
2023-01-25T01:53:38.384Z,2.49
2023-01-25T01:54:38.320Z,2.50
2023-01-25T01:55:38.257Z,2.48
2023-01-25T01:56:38.137Z,2.38
2023-01-25T01:57:38.045Z,2.44
2023-01-25T01:58:38.194Z,2.38
2023-01-25T01:59:37.855Z,2.44
2023-01-25T02:00:37.767Z,2.52
2023-01-25T02:01:37.744Z,2.41
2023-01-25T02:02:37.608Z,2.46
2023-01-25T02:03:37.510Z,2.38
2023-01-25T02:04:37.415Z,2.46
2023-01-25T02:05:37.346Z,2.37
2023-01-25T02:06:37.439Z,2.32
2023-01-25T02:07:37.159Z,2.41
2023-01-25T02:08:37.093Z,2.37
2023-01-25T02:09:36.987Z,2.32
2023-01-25T02:10:36.907Z,2.48
2023-01-25T02:11:36.801Z,2.42
2023-01-25T02:12:36.710Z,2.46
2023-01-25T02:13:36.630Z,2.38
2023-01-25T02:14:36.537Z,2.39
2023-01-25T02:15:36.472Z,2.44
2023-01-25T02:16:36.360Z,2.39
2023-01-25T02:17:36.276Z,2.32
2023-01-25T02:18:36.189Z,2.24
2023-01-25T02:19:36.097Z,2.24
2023-01-25T02:20:36.056Z,2.30
2023-01-25T02:21:35.920Z,2.38
2023-01-25T02:22:35.830Z,2.38
2023-01-25T02:23:35.747Z,2.26
2023-01-25T02:24:35.655Z,2.38
2023-01-25T02:25:35.572Z,2.38
2023-01-25T02:26:35.499Z,2.41
2023-01-25T02:27:35.391Z,2.46
2023-01-25T02:28:35.302Z,2.44
2023-01-25T02:29:35.222Z,2.52
2023-01-25T02:30:35.130Z,2.41
2023-01-25T02:31:35.245Z,2.50
2023-01-25T02:32:34.950Z,2.50
2023-01-25T02:33:34.869Z,2.52
2023-01-25T02:34:34.776Z,2.39
2023-01-25T02:35:34.687Z,2.38
2023-01-25T02:36:34.619Z,2.38
2023-01-25T02:37:34.512Z,2.31
2023-01-25T02:38:34.427Z,2.37
2023-01-25T02:39:34.336Z,2.31
2023-01-25T02:40:34.248Z,2.26
2023-01-25T02:41:34.179Z,2.30
2023-01-25T02:42:34.344Z,2.23
2023-01-25T02:43:33.988Z,2.35
2023-01-25T02:44:34.602Z,2.34
2023-01-25T02:45:33.808Z,2.31
2023-01-25T02:46:33.852Z,2.32
2023-01-25T02:47:33.632Z,2.38
2023-01-25T02:48:33.542Z,2.42
2023-01-25T02:49:33.456Z,2.44
2023-01-25T02:50:33.365Z,2.50
2023-01-25T02:51:33.277Z,2.48
2023-01-25T02:52:33.187Z,2.57
2023-01-25T02:53:33.108Z,2.39
2023-01-25T02:54:33.018Z,2.46
2023-01-25T02:55:32.929Z,2.44
2023-01-25T02:56:32.837Z,2.46
2023-01-25T02:57:32.752Z,2.50
2023-01-25T02:58:32.680Z,2.57
2023-01-25T02:59:32.576Z,2.55
2023-01-25T03:00:32.490Z,2.59
2023-01-25T03:01:32.479Z,2.48
2023-01-25T03:02:32.367Z,2.46
2023-01-25T03:03:32.231Z,2.49
2023-01-25T03:04:32.157Z,2.42
2023-01-25T03:05:32.060Z,2.41
2023-01-25T03:06:31.960Z,2.32
2023-01-25T03:07:31.873Z,2.50
2023-01-25T03:08:31.788Z,2.48
2023-01-25T03:09:31.696Z,2.39
2023-01-25T03:10:31.628Z,2.52
2023-01-25T03:11:31.521Z,2.38
2023-01-25T03:12:31.432Z,2.35
2023-01-25T03:13:31.345Z,2.35
2023-01-25T03:14:31.282Z,2.50
2023-01-25T03:15:31.534Z,2.46
2023-01-25T03:16:31.123Z,2.50
2023-01-25T03:17:31.001Z,2.48
2023-01-25T03:18:31.058Z,2.37
2023-01-25T03:19:30.827Z,2.46
2023-01-25T03:20:30.735Z,2.41
2023-01-25T03:21:30.642Z,2.50
2023-01-25T03:22:30.553Z,2.48
2023-01-25T03:23:30.466Z,2.37
2023-01-25T03:24:30.456Z,2.37
2023-01-25T03:25:30.292Z,2.34
2023-01-25T03:26:30.217Z,2.35
2023-01-25T03:27:30.112Z,2.41
2023-01-25T03:28:30.038Z,2.37
2023-01-25T03:29:29.950Z,2.46
2023-01-25T03:30:29.959Z,2.44
2023-01-25T03:31:29.945Z,2.52
2023-01-25T03:32:29.734Z,2.42
2023-01-25T03:33:29.588Z,2.52
2023-01-25T03:34:29.501Z,2.66
2023-01-25T03:35:29.512Z,2.53
2023-01-25T03:36:29.406Z,2.46
2023-01-25T03:37:29.243Z,2.49
2023-01-25T03:38:29.152Z,2.42
2023-01-25T03:39:29.061Z,2.57
2023-01-25T03:40:28.979Z,2.53
2023-01-25T03:41:28.889Z,2.56
2023-01-25T03:42:28.798Z,2.49
2023-01-25T03:43:28.712Z,2.46
2023-01-25T03:44:28.630Z,2.49
2023-01-25T03:45:28.544Z,2.42
2023-01-25T03:46:28.505Z,2.37
2023-01-25T03:47:28.359Z,2.30
2023-01-25T03:48:28.303Z,2.35
2023-01-25T03:49:28.204Z,2.34
2023-01-25T03:50:28.099Z,2.39
2023-01-25T03:51:28.016Z,2.42
2023-01-25T03:52:27.920Z,2.37
2023-01-25T03:53:27.833Z,2.41
2023-01-25T03:54:27.743Z,2.32
2023-01-25T03:55:27.664Z,2.35
2023-01-25T03:56:27.573Z,2.35
2023-01-25T03:57:27.488Z,2.32
2023-01-25T03:58:27.396Z,2.32
2023-01-25T03:59:27.317Z,2.21
2023-01-25T04:00:27.218Z,2.23
2023-01-25T04:01:27.135Z,2.23
2023-01-25T04:02:27.265Z,2.19
2023-01-25T04:03:27.248Z,2.09
2023-01-25T04:04:26.868Z,2.24
2023-01-25T04:05:26.781Z,2.30
2023-01-25T04:06:26.691Z,2.37
2023-01-25T04:07:26.602Z,2.24
2023-01-25T04:08:26.523Z,2.31
2023-01-25T04:09:26.430Z,2.37
2023-01-25T04:10:26.339Z,2.31
2023-01-25T04:11:26.283Z,2.39
2023-01-25T04:12:26.164Z,2.32
2023-01-25T04:13:26.086Z,2.39
2023-01-25T04:14:43.324Z,2.38
2023-01-25T04:15:25.898Z,2.50
2023-01-25T04:16:25.823Z,2.35
2023-01-25T04:17:25.723Z,2.34
2023-01-25T04:18:25.660Z,2.26
2023-01-25T04:19:25.554Z,2.20
2023-01-25T04:20:25.465Z,2.24
2023-01-25T04:21:25.376Z,2.26
2023-01-25T04:22:25.282Z,2.31
2023-01-25T04:23:25.196Z,2.28
2023-01-25T04:24:25.136Z,2.30
2023-01-25T04:25:25.020Z,2.32
2023-01-25T04:26:24.931Z,2.34
2023-01-25T04:27:24.859Z,2.21
2023-01-25T04:28:24.854Z,2.24
2023-01-25T04:29:35.458Z,2.14
2023-01-25T04:30:24.579Z,2.19
2023-01-25T04:31:24.613Z,2.24
2023-01-25T04:32:24.533Z,2.21
2023-01-25T04:33:24.367Z,2.32
2023-01-25T04:34:24.258Z,2.34
2023-01-25T04:35:24.141Z,2.35
2023-01-25T04:36:24.049Z,2.31
2023-01-25T04:37:23.963Z,2.38
2023-01-25T04:38:23.885Z,2.39
2023-01-25T04:39:23.788Z,2.39
2023-01-25T04:40:24.048Z,2.32
2023-01-25T04:41:23.614Z,2.42
2023-01-25T04:42:23.537Z,2.44
2023-01-25T04:43:23.440Z,2.39
2023-01-25T04:44:23.348Z,2.41
2023-01-25T04:45:23.262Z,2.41
2023-01-25T04:46:23.207Z,2.38
2023-01-25T04:47:23.110Z,2.42
2023-01-25T04:48:23.018Z,2.42
2023-01-25T04:49:22.909Z,2.38
2023-01-25T04:50:23.245Z,2.37
2023-01-25T04:51:22.733Z,2.38
2023-01-25T04:52:22.648Z,2.37
2023-01-25T04:53:22.561Z,2.31
2023-01-25T04:54:22.469Z,2.24
2023-01-25T04:55:22.384Z,2.23
2023-01-25T04:56:22.293Z,2.21
2023-01-25T04:57:22.211Z,2.12
2023-01-25T04:58:22.120Z,2.24
2023-01-25T04:59:22.134Z,2.24
2023-01-25T05:00:21.953Z,2.21
2023-01-25T05:01:21.900Z,2.26
2023-01-25T05:02:21.821Z,2.21
2023-01-25T05:03:21.680Z,2.26
2023-01-25T05:04:21.591Z,2.34
2023-01-25T05:05:21.503Z,2.34
2023-01-25T05:06:21.441Z,2.39
2023-01-25T05:07:21.333Z,2.35
2023-01-25T05:08:21.247Z,2.31
2023-01-25T05:09:21.156Z,2.24
2023-01-25T05:10:21.064Z,2.34
2023-01-25T05:11:20.978Z,2.34
2023-01-25T05:12:20.899Z,2.42
2023-01-25T05:13:21.051Z,2.38
2023-01-25T05:14:20.713Z,2.37
2023-01-25T05:15:20.626Z,2.38
2023-01-25T05:16:20.585Z,2.32
2023-01-25T05:17:20.448Z,2.44
2023-01-25T05:18:20.367Z,2.38
2023-01-25T05:19:20.272Z,2.38
2023-01-25T05:20:20.188Z,2.39
2023-01-25T05:21:20.098Z,2.39
2023-01-25T05:22:20.037Z,2.26
2023-01-25T05:23:19.922Z,2.31
2023-01-25T05:24:19.945Z,2.28
2023-01-25T05:25:19.747Z,2.35
2023-01-25T05:27:02.134Z,2.34
2023-01-25T05:28:02.250Z,2.44
2023-01-25T05:30:04.449Z,2.42
2023-01-25T05:33:29.970Z,2.39
2023-01-25T05:34:29.882Z,2.46
2023-01-25T05:36:22.272Z,2.48
2023-01-25T05:37:22.210Z,2.42
2023-01-25T05:38:22.119Z,2.42
2023-01-25T05:39:22.010Z,2.52
2023-01-25T05:40:22.072Z,2.48
2023-01-25T05:41:22.233Z,2.38
2023-01-25T05:42:21.753Z,2.35
2023-01-25T05:43:22.060Z,2.34
2023-01-25T05:44:21.590Z,2.31
2023-01-25T05:45:21.486Z,2.31
2023-01-25T05:46:21.529Z,2.37
2023-01-25T05:47:21.312Z,2.48
2023-01-25T05:48:21.226Z,2.49
2023-01-25T05:49:21.135Z,2.32
2023-01-25T05:50:21.046Z,2.38
2023-01-25T05:51:20.956Z,2.24
2023-01-25T05:52:20.868Z,2.20
2023-01-25T05:53:20.781Z,2.30
2023-01-25T05:54:20.728Z,2.26
2023-01-25T05:55:20.634Z,2.16
2023-01-25T05:56:20.517Z,2.14
2023-01-25T05:57:20.433Z,2.13
2023-01-25T05:58:20.346Z,2.23
2023-01-25T05:59:20.253Z,2.13
2023-01-25T06:00:20.177Z,2.13
2023-01-25T06:01:20.082Z,2.14
2023-01-25T06:02:20.124Z,2.06
2023-01-25T06:03:20.040Z,2.03
2023-01-25T06:04:19.812Z,2.05
2023-01-25T06:05:19.728Z,2.09
2023-01-25T06:06:19.639Z,2.01
2023-01-25T06:07:19.705Z,2.06
2023-01-25T06:08:19.462Z,1.95
2023-01-25T06:09:19.378Z,1.83
2023-01-25T06:10:19.303Z,1.90
2023-01-25T06:11:19.200Z,2.02
2023-01-25T06:12:19.112Z,1.98
2023-01-25T06:13:19.019Z,2.09
2023-01-25T06:14:18.937Z,2.02
2023-01-25T06:15:18.847Z,2.09
2023-01-25T06:16:18.861Z,2.20
2023-01-25T06:17:18.681Z,2.01
2023-01-25T06:18:18.583Z,2.03
2023-01-25T06:19:18.489Z,2.10
2023-01-25T06:20:18.411Z,1.99
2023-01-25T06:21:18.316Z,2.06
2023-01-25T06:22:18.227Z,2.01
2023-01-25T06:23:18.136Z,2.03
2023-01-25T06:24:18.096Z,2.02
2023-01-25T06:25:17.962Z,2.02
2023-01-25T06:26:17.906Z,2.01
2023-01-25T06:27:17.785Z,2.09
2023-01-25T06:28:17.699Z,1.95
2023-01-25T06:29:17.619Z,2.09
2023-01-25T06:30:17.549Z,2.02
2023-01-25T06:31:17.559Z,2.16
2023-01-25T06:32:17.392Z,2.17
2023-01-25T06:33:17.262Z,2.14
2023-01-25T06:34:17.215Z,2.02
2023-01-25T06:35:17.094Z,2.03
2023-01-25T06:36:16.999Z,1.94
2023-01-25T06:37:16.907Z,2.03
2023-01-25T06:38:16.819Z,1.99
2023-01-25T06:39:16.728Z,2.02
2023-01-25T06:40:16.648Z,1.99
2023-01-25T06:41:16.558Z,2.01
2023-01-25T06:42:16.486Z,2.10
2023-01-25T06:43:16.379Z,2.06
2023-01-25T06:44:16.304Z,2.23
2023-01-25T06:45:16.199Z,2.28
2023-01-25T06:46:16.176Z,2.30
2023-01-25T06:47:16.027Z,2.17
2023-01-25T06:48:15.935Z,2.26
2023-01-25T06:49:15.852Z,2.38
2023-01-25T06:50:15.763Z,2.26
2023-01-25T06:51:15.737Z,2.13
2023-01-25T06:52:15.583Z,2.09
2023-01-25T06:53:15.494Z,2.01
2023-01-25T06:54:15.405Z,2.09
2023-01-25T06:55:15.319Z,1.95
2023-01-25T06:56:15.231Z,1.99
2023-01-25T06:57:15.140Z,2.09
2023-01-25T06:58:15.075Z,2.03
2023-01-25T06:59:14.971Z,2.05
2023-01-25T07:00:14.876Z,2.12
2023-01-25T07:01:14.963Z,2.13
2023-01-25T07:02:14.702Z,2.13
2023-01-25T07:03:14.614Z,2.19
2023-01-25T07:04:14.534Z,2.09
2023-01-25T07:05:14.437Z,2.03
2023-01-25T07:06:14.349Z,2.03
2023-01-25T07:07:14.260Z,2.06
2023-01-25T07:08:14.175Z,2.05
2023-01-25T07:09:14.089Z,2.16
2023-01-25T07:10:13.997Z,2.19
2023-01-25T07:11:13.938Z,2.14
2023-01-25T07:12:13.820Z,2.16
2023-01-25T07:13:13.730Z,2.12
2023-01-25T07:14:13.670Z,2.17
2023-01-25T07:15:13.561Z,2.02
2023-01-25T07:16:13.562Z,2.14
2023-01-25T07:17:13.379Z,2.16
2023-01-25T07:18:16.504Z,2.17
2023-01-25T07:19:13.225Z,2.26
2023-01-25T07:20:13.122Z,2.28
2023-01-25T07:21:13.045Z,2.30
2023-01-25T07:22:12.943Z,2.13
2023-01-25T07:23:12.852Z,2.19
2023-01-25T07:24:12.824Z,2.19
2023-01-25T07:25:12.897Z,2.26
2023-01-25T07:26:12.586Z,2.24
2023-01-25T07:27:12.498Z,2.12
2023-01-25T07:28:12.520Z,2.16
2023-01-25T07:29:12.325Z,2.23
2023-01-25T07:30:12.261Z,2.24
2023-01-25T07:31:12.223Z,2.28
2023-01-25T07:32:12.074Z,2.28
2023-01-25T07:33:11.980Z,2.13
2023-01-25T07:34:11.884Z,2.10
2023-01-25T07:35:11.917Z,2.14
2023-01-25T07:36:11.710Z,2.03
2023-01-25T07:37:11.624Z,2.12
2023-01-25T07:38:13.831Z,2.06
2023-01-25T07:39:11.443Z,2.05
2023-01-25T07:40:11.354Z,2.05
2023-01-25T07:41:11.269Z,2.06
2023-01-25T07:42:11.179Z,2.28
2023-01-25T07:44:11.201Z,2.03
2023-01-25T07:45:11.389Z,2.02
2023-01-25T07:46:10.863Z,2.03
2023-01-25T07:47:10.739Z,2.06
2023-01-25T07:48:10.649Z,2.05
2023-01-25T07:49:10.565Z,2.17
2023-01-25T07:50:10.474Z,2.13
2023-01-25T07:51:10.398Z,2.19
2023-01-25T07:52:10.299Z,2.26
2023-01-25T07:53:10.210Z,2.26
2023-01-25T07:54:10.124Z,2.24
2023-01-25T07:55:10.408Z,2.26
2023-01-25T07:56:09.949Z,2.24
2023-01-25T07:57:09.860Z,2.23
2023-01-25T07:58:09.769Z,2.19
2023-01-25T07:59:10.081Z,2.24
2023-01-25T08:00:09.594Z,2.30
2023-01-25T08:01:09.509Z,2.35
2023-01-25T08:02:09.441Z,2.32
2023-01-25T08:03:09.334Z,2.32
2023-01-25T08:04:09.262Z,2.32
2023-01-25T08:05:09.579Z,2.32
2023-01-25T08:06:09.075Z,2.32
2023-01-25T08:07:08.980Z,2.34
2023-01-25T08:08:08.891Z,2.32
2023-01-25T08:09:08.812Z,2.30
2023-01-25T08:10:08.716Z,2.32
2023-01-25T08:11:08.748Z,2.35
2023-01-25T08:12:08.815Z,2.34
2023-01-25T08:13:08.451Z,2.35
2023-01-25T08:14:08.368Z,2.38
2023-01-25T08:15:08.644Z,2.39
2023-01-25T08:16:08.187Z,2.32
2023-01-25T08:17:08.099Z,2.34
2023-01-25T08:18:08.072Z,2.34
2023-01-25T08:19:07.926Z,2.39
2023-01-25T08:20:07.837Z,2.37
2023-01-25T08:21:07.773Z,2.31
2023-01-25T08:22:07.664Z,2.35
2023-01-25T08:23:07.575Z,2.28
2023-01-25T08:24:07.660Z,2.26
2023-01-25T08:25:07.705Z,2.24
2023-01-25T08:26:07.310Z,2.10
2023-01-25T08:27:07.224Z,2.10
2023-01-25T08:28:07.134Z,2.21
2023-01-25T08:29:07.124Z,2.28
2023-01-25T08:30:06.979Z,2.23
2023-01-25T08:31:06.915Z,2.24
2023-01-25T08:32:06.816Z,2.26
2023-01-25T08:33:06.696Z,2.24
2023-01-25T08:34:06.646Z,2.39
2023-01-25T08:35:06.770Z,2.24
2023-01-25T08:36:06.444Z,2.28
2023-01-25T08:37:06.344Z,2.24
2023-01-25T08:38:06.256Z,2.24
2023-01-25T08:39:06.173Z,2.21
2023-01-25T08:40:06.092Z,2.09
2023-01-25T08:41:05.999Z,2.20
2023-01-25T08:42:05.907Z,2.21
2023-01-25T08:43:05.823Z,2.23
2023-01-25T08:44:05.729Z,2.23
2023-01-25T08:45:05.644Z,2.32
2023-01-25T08:46:05.555Z,2.23
2023-01-25T08:47:05.469Z,2.30
2023-01-25T08:48:05.379Z,2.32
2023-01-25T08:49:05.341Z,2.31
2023-01-25T08:50:05.219Z,2.24
2023-01-25T08:51:05.122Z,2.19
2023-01-25T08:52:05.030Z,2.12
2023-01-25T08:53:04.939Z,2.16
2023-01-25T08:54:04.853Z,2.10
2023-01-25T08:55:04.765Z,2.01
2023-01-25T08:56:04.716Z,2.06
2023-01-25T08:57:04.586Z,2.10
2023-01-25T08:58:04.510Z,2.03
2023-01-25T08:59:04.411Z,2.10
2023-01-25T09:00:04.324Z,2.06
2023-01-25T09:01:04.254Z,2.10
2023-01-25T09:02:04.147Z,2.01
2023-01-25T09:03:04.063Z,2.12
2023-01-25T09:04:04.051Z,2.01
2023-01-25T09:05:03.887Z,2.10
2023-01-25T09:06:03.823Z,2.13
2023-01-25T09:07:04.160Z,2.26
2023-01-25T09:08:03.623Z,2.21
2023-01-25T09:09:03.600Z,2.24
2023-01-25T09:10:03.446Z,2.21
2023-01-25T09:11:03.373Z,2.14
2023-01-25T09:12:03.267Z,2.26
2023-01-25T09:13:03.183Z,2.20
2023-01-25T09:14:03.092Z,2.24
2023-01-25T09:15:03.017Z,2.24
2023-01-25T09:16:02.920Z,2.35
2023-01-25T09:17:02.830Z,2.38
2023-01-25T09:18:02.742Z,2.34
2023-01-25T09:19:02.655Z,2.23
2023-01-25T09:20:02.623Z,2.12
2023-01-25T09:21:02.482Z,2.10
2023-01-25T09:22:02.429Z,2.06
2023-01-25T09:23:02.302Z,2.01
2023-01-25T09:24:06.979Z,2.05
2023-01-25T09:25:02.158Z,2.03
2023-01-25T09:26:02.037Z,2.09
2023-01-25T09:27:02.098Z,2.13
2023-01-25T09:28:01.861Z,2.21
2023-01-25T09:29:01.779Z,2.10
2023-01-25T09:30:03.314Z,1.98
2023-01-25T09:31:19.707Z,2.03
2023-01-25T09:32:01.663Z,2.10
2023-01-25T09:33:01.541Z,2.10
2023-01-25T09:34:01.333Z,2.05
2023-01-25T09:35:01.264Z,2.05
2023-01-25T09:36:01.163Z,2.03
2023-01-25T09:37:01.071Z,2.03
2023-01-25T09:38:01.013Z,1.83
2023-01-25T09:39:01.197Z,1.83
2023-01-25T09:40:00.904Z,1.86
2023-01-25T09:41:00.722Z,1.91
2023-01-25T09:42:06.454Z,2.09
2023-01-25T09:43:00.549Z,2.06
2023-01-25T09:44:13.716Z,2.12
2023-01-25T09:45:00.364Z,2.09
2023-01-25T09:46:00.340Z,2.03
2023-01-25T09:47:00.189Z,2.03
2023-01-25T09:48:00.105Z,2.03
2023-01-25T09:49:07.361Z,2.02
2023-01-25T09:49:59.925Z,1.98
2023-01-25T09:50:59.849Z,2.06
2023-01-25T09:51:59.751Z,2.02
2023-01-25T09:52:59.665Z,2.03
2023-01-25T09:53:59.598Z,2.02
2023-01-25T09:54:59.484Z,2.05
2023-01-25T09:55:59.395Z,2.10
2023-01-25T09:56:59.310Z,2.03
2023-01-25T09:57:59.221Z,1.99
2023-01-25T09:58:59.131Z,2.02
2023-01-25T10:00:01.059Z,1.98
2023-01-25T10:00:58.962Z,1.98
2023-01-25T10:01:58.915Z,1.80
2023-01-25T10:02:58.846Z,1.95
2023-01-25T10:03:58.690Z,1.91
2023-01-25T10:04:58.602Z,1.92
2023-01-25T10:05:58.511Z,2.01
2023-01-25T10:07:01.350Z,1.99
2023-01-25T10:07:58.337Z,2.03
2023-01-25T10:08:58.245Z,2.12
2023-01-25T10:09:58.180Z,2.10
2023-01-25T10:10:58.075Z,2.12
2023-01-25T10:11:57.984Z,2.23
2023-01-25T10:12:57.907Z,2.26
2023-01-25T10:13:57.815Z,2.28
2023-01-25T10:14:57.716Z,2.32
2023-01-25T10:15:57.643Z,2.26
2023-01-25T10:16:57.540Z,2.26
2023-01-25T10:17:57.456Z,2.30
2023-01-25T10:18:57.373Z,2.28
2023-01-25T10:19:57.325Z,2.16
2023-01-25T10:20:57.542Z,2.26
2023-01-25T10:21:57.102Z,2.26
2023-01-25T10:22:57.012Z,2.16
2023-01-25T10:23:56.947Z,2.24
2023-01-25T10:24:57.190Z,2.21
2023-01-25T10:25:56.771Z,2.24
2023-01-25T10:26:56.672Z,2.35
2023-01-25T10:27:56.578Z,2.38
2023-01-25T10:28:56.541Z,2.39
2023-01-25T10:29:56.413Z,2.37
2023-01-25T10:30:56.533Z,2.38
2023-01-25T10:31:56.244Z,2.48
2023-01-25T10:32:56.454Z,2.41
2023-01-25T10:33:56.047Z,2.49
2023-01-25T10:34:57.467Z,2.46
2023-01-25T10:35:55.873Z,2.41
2023-01-25T10:36:55.784Z,2.42
2023-01-25T10:37:55.696Z,2.35
2023-01-25T10:38:55.619Z,2.38
2023-01-25T10:39:55.531Z,2.41
2023-01-25T10:40:55.434Z,2.38
2023-01-25T10:41:55.378Z,2.23
2023-01-25T10:42:55.258Z,2.32
2023-01-25T10:43:55.177Z,2.32
2023-01-25T10:44:55.084Z,2.41
2023-01-25T10:45:54.994Z,2.32
2023-01-25T10:46:54.981Z,2.34
2023-01-25T10:47:54.821Z,2.32
2023-01-25T10:48:54.747Z,2.32
2023-01-25T10:49:54.646Z,2.38
2023-01-25T10:50:54.569Z,2.34
2023-01-25T10:51:54.476Z,2.34
2023-01-25T10:52:54.379Z,2.39
2023-01-25T10:53:54.294Z,2.39
2023-01-25T10:54:54.207Z,2.44
2023-01-25T10:55:54.122Z,2.46
2023-01-25T10:56:54.033Z,2.56
2023-01-25T10:57:53.968Z,2.49
2023-01-25T10:58:53.873Z,2.46
2023-01-25T10:59:53.772Z,2.48
2023-01-25T11:00:53.792Z,2.46
2023-01-25T11:01:53.841Z,2.30
2023-01-25T11:02:53.574Z,2.32
2023-01-25T11:03:53.423Z,2.37
2023-01-25T11:04:53.331Z,2.32
2023-01-25T11:05:53.244Z,2.34
2023-01-25T11:06:53.157Z,2.42
2023-01-25T11:07:53.077Z,2.46
2023-01-25T11:08:53.133Z,2.34
2023-01-25T11:09:52.895Z,2.35
2023-01-25T11:10:52.807Z,2.30
2023-01-25T11:11:52.717Z,2.38
2023-01-25T11:12:52.629Z,2.35
2023-01-25T11:13:52.564Z,2.37
2023-01-25T11:14:52.455Z,2.35
2023-01-25T11:15:52.427Z,2.42
2023-01-25T11:16:52.288Z,2.44
2023-01-25T11:17:52.193Z,2.44
2023-01-25T11:18:52.123Z,2.41
2023-01-25T11:19:52.021Z,2.32
2023-01-25T11:20:51.931Z,2.41
2023-01-25T11:21:51.862Z,2.48
2023-01-25T11:22:51.756Z,2.46
2023-01-25T11:23:51.706Z,2.41
2023-01-25T11:24:51.784Z,2.46
2023-01-25T11:25:51.496Z,2.42
2023-01-25T11:26:51.413Z,2.60
2023-01-25T11:27:51.321Z,2.63
2023-01-25T11:28:51.434Z,2.55
2023-01-25T11:29:51.198Z,2.59
2023-01-25T11:30:51.157Z,2.41
2023-01-25T11:31:51.047Z,2.46
2023-01-25T11:32:50.880Z,2.52
2023-01-25T11:33:50.798Z,2.52
2023-01-25T11:34:50.708Z,2.44
2023-01-25T11:35:50.872Z,2.37
2023-01-25T11:36:50.533Z,2.39
2023-01-25T11:37:50.446Z,2.39
2023-01-25T11:38:50.709Z,2.35
2023-01-25T11:39:50.271Z,2.42
2023-01-25T11:40:50.208Z,2.44
2023-01-25T11:41:50.101Z,2.38
2023-01-25T11:42:50.010Z,2.42
2023-01-25T11:43:49.923Z,2.39
2023-01-25T11:44:49.834Z,2.34
2023-01-25T11:45:49.778Z,2.38
2023-01-25T11:46:49.763Z,2.41
2023-01-25T11:47:49.571Z,2.31
2023-01-25T11:48:49.487Z,2.44
2023-01-25T11:49:49.401Z,2.37
2023-01-25T11:50:49.714Z,2.26
2023-01-25T11:51:51.196Z,2.35
2023-01-25T11:52:49.134Z,2.34
2023-01-25T11:53:49.051Z,2.34
2023-01-25T11:54:48.959Z,2.44
2023-01-25T11:55:48.882Z,2.37
2023-01-25T11:56:48.793Z,2.37
2023-01-25T11:57:48.711Z,2.31
2023-01-25T11:58:48.608Z,2.38
2023-01-25T11:59:48.526Z,2.34
2023-01-25T12:00:48.509Z,2.37
2023-01-25T12:01:48.383Z,2.32
2023-01-25T12:02:48.302Z,2.42
2023-01-25T12:03:48.209Z,2.37
2023-01-25T12:04:48.086Z,2.30
2023-01-25T12:05:47.998Z,2.32
2023-01-25T12:06:47.925Z,2.38
2023-01-25T12:07:47.831Z,2.41
2023-01-25T12:08:47.736Z,2.41
2023-01-25T12:09:47.646Z,2.50
2023-01-25T12:10:47.559Z,2.50
2023-01-25T12:11:47.471Z,2.66
2023-01-25T12:12:47.384Z,2.70
2023-01-25T12:13:47.303Z,2.53
2023-01-25T12:14:47.246Z,2.63
2023-01-25T12:15:47.191Z,2.68
2023-01-25T12:16:47.033Z,2.71
2023-01-25T12:17:46.971Z,2.66
2023-01-25T12:18:46.858Z,2.74
2023-01-25T12:19:46.771Z,2.70
2023-01-25T12:20:46.685Z,2.71
2023-01-25T12:21:46.753Z,2.71
2023-01-25T12:22:46.510Z,2.63
2023-01-25T12:23:46.473Z,2.67
2023-01-25T12:24:46.337Z,2.70
2023-01-25T12:25:46.251Z,2.60
2023-01-25T12:26:46.164Z,2.52
2023-01-25T12:27:46.077Z,2.55
2023-01-25T12:28:45.987Z,2.59
2023-01-25T12:29:45.900Z,2.50
2023-01-25T12:30:45.841Z,2.60
2023-01-25T12:31:45.778Z,2.57
2023-01-25T12:32:45.639Z,2.56
2023-01-25T12:33:45.580Z,2.50
2023-01-25T12:34:45.463Z,2.71
2023-01-25T12:35:45.375Z,2.70
2023-01-25T12:36:45.288Z,2.70
2023-01-25T12:37:45.204Z,2.73
2023-01-25T12:38:45.113Z,2.78
2023-01-25T12:39:45.027Z,2.71
2023-01-25T12:40:44.939Z,2.70
2023-01-25T12:41:44.894Z,2.67
2023-01-25T12:42:44.893Z,2.77
2023-01-25T12:43:44.680Z,2.78
2023-01-25T12:44:44.621Z,2.91
2023-01-25T12:45:44.508Z,2.92
2023-01-25T12:46:44.567Z,2.86
2023-01-25T12:47:44.427Z,2.78
2023-01-25T12:48:44.247Z,2.74
2023-01-25T12:49:44.179Z,2.62
2023-01-25T12:50:44.067Z,2.60
2023-01-25T12:51:43.981Z,2.57
2023-01-25T12:52:43.894Z,2.50
2023-01-25T12:53:43.809Z,2.48
2023-01-25T12:54:43.722Z,2.56
2023-01-25T12:55:43.635Z,2.68
2023-01-25T12:56:43.544Z,2.66
2023-01-25T12:57:43.461Z,2.68
2023-01-25T12:58:43.627Z,2.73
2023-01-25T12:59:43.285Z,2.84
2023-01-25T13:00:43.236Z,2.84
2023-01-25T13:01:43.173Z,2.75
2023-01-25T13:02:43.034Z,2.66
2023-01-25T13:03:42.935Z,2.80
2023-01-25T13:04:42.847Z,2.78
2023-01-25T13:05:42.785Z,2.73
2023-01-25T13:06:42.674Z,2.80
2023-01-25T13:07:42.892Z,2.80
2023-01-25T13:08:42.513Z,2.89
2023-01-25T13:09:42.468Z,2.86
2023-01-25T13:10:42.333Z,2.92
2023-01-25T13:11:42.239Z,2.84
2023-01-25T13:12:42.155Z,2.85
2023-01-25T13:13:42.090Z,2.77
2023-01-25T13:14:42.380Z,2.78
2023-01-25T13:15:41.896Z,2.75
2023-01-25T13:16:41.806Z,2.73
2023-01-25T13:17:41.720Z,2.74
2023-01-25T13:18:41.650Z,2.70
2023-01-25T13:19:41.545Z,2.66
2023-01-25T13:20:41.478Z,2.50
2023-01-25T13:21:41.388Z,2.46
2023-01-25T13:22:42.813Z,2.34
2023-01-25T13:23:41.195Z,2.32